Time;durP1;ratioP1;P1;durP2;ratioP2;P2;SDS_P1;SDS_P2;PMS_P1;PMS_P2;Temp;Humidity;BMP_temperature;BMP_pressure;BME280_temperature;BME280_humidity;BME280_pressure;Samples;Min_cycle;Max_cycle;Signal;HPM_P1;HPM_P2
2022/09/16 00:01:44;;;;;;;9.65;2.97;;;;;;;11.72;91.65;100936.13;6060553;23;20030;-85
2022/09/16 00:04:10;;;;;;;7.20;2.88;;;;;;;11.66;91.67;100924.94;6061213;23;20417;-86
2022/09/16 00:06:35;;;;;;;8.10;2.47;;;;;;;11.80;92.14;100946.38;6059844;23;20010;-86
2022/09/16 00:09:00;;;;;;;6.82;2.25;;;;;;;11.79;90.84;100947.34;6061962;23;20265;-85
2022/09/16 00:11:26;;;;;;;5.05;2.03;;;;;;;11.84;90.40;100955.13;6034560;23;20018;-86
2022/09/16 00:13:52;;;;;;;6.13;2.10;;;;;;;11.81;89.91;100933.91;6060792;23;20018;-86
2022/09/16 00:16:25;;;;;;;7.95;2.20;;;;;;;11.85;89.98;100947.03;6058138;23;20427;-86
2022/09/16 00:18:59;;;;;;;8.20;2.50;;;;;;;11.89;90.89;100950.41;6061111;23;20013;-85
2022/09/16 00:21:26;;;;;;;4.43;1.92;;;;;;;11.88;90.33;100944.19;6059537;23;20013;-84
2022/09/16 00:23:52;;;;;;;8.50;2.28;;;;;;;11.81;91.08;100932.09;6059856;23;20058;-85
2022/09/16 00:26:18;;;;;;;5.10;1.98;;;;;;;11.84;92.00;100934.66;6035438;23;20294;-85
2022/09/16 00:28:46;;;;;;;6.85;2.10;;;;;;;11.83;90.96;100938.25;6035806;23;20030;-86
2022/09/16 00:31:11;;;;;;;5.55;2.03;;;;;;;11.79;90.72;100933.13;6062992;23;20013;-85
2022/09/16 00:33:37;;;;;;;5.38;2.13;;;;;;;11.78;90.60;100929.59;6065334;23;20011;-86
2022/09/16 00:36:18;;;;;;;6.03;1.90;;;;;;;11.75;90.53;100927.13;6065455;23;20011;-86
2022/09/16 00:38:44;;;;;;;5.15;1.90;;;;;;;11.82;90.83;100931.16;6065108;23;20015;-86
2022/09/16 00:41:21;;;;;;;6.55;2.17;;;;;;;11.82;90.69;100923.16;6063579;23;20022;-86
2022/09/16 00:43:51;;;;;;;7.10;2.17;;;;;;;11.82;91.04;100927.63;6060068;23;20006;-86
2022/09/16 00:46:22;;;;;;;7.18;2.28;;;;;;;11.80;90.38;100917.06;6060674;23;20006;-85
2022/09/16 00:48:48;;;;;;;4.85;2.10;;;;;;;11.85;91.42;100919.50;6060473;23;20174;-86
2022/09/16 00:51:15;;;;;;;6.80;2.63;;;;;;;11.84;91.09;100928.47;6035659;23;20583;-86
2022/09/16 00:53:55;;;;;;;7.68;2.17;;;;;;;11.82;90.97;100923.16;6062232;23;20007;-86
2022/09/16 00:56:22;;;;;;;9.45;2.53;;;;;;;11.77;91.45;100917.22;6061550;23;20203;-86
2022/09/16 00:58:55;;;;;;;8.50;2.95;;;;;;;11.70;90.49;100910.47;6061303;23;20003;-86
2022/09/16 01:01:21;;;;;;;10.45;3.05;;;;;;;11.65;90.30;100915.22;6060481;23;20441;-86
2022/09/16 01:03:53;;;;;;;9.48;2.65;;;;;;;11.57;90.64;100915.63;6061301;23;20062;-85
2022/09/16 01:06:20;;;;;;;7.32;3.08;;;;;;;11.39;90.67;100904.16;6061641;23;20014;-86
2022/09/16 01:08:48;;;;;;;8.55;2.85;;;;;;;11.31;91.28;100909.03;6061351;23;19998;-86
2022/09/16 01:11:14;;;;;;;4.63;2.47;;;;;;;11.18;91.48;100910.63;6061578;23;20127;-85
2022/09/16 01:13:42;;;;;;;10.18;2.95;;;;;;;11.11;92.24;100906.53;6060685;23;20035;-86
2022/09/16 01:16:22;;;;;;;6.25;2.80;;;;;;;11.04;92.56;100913.16;6062179;23;20003;-86
2022/09/16 01:18:57;;;;;;;10.20;3.10;;;;;;;10.97;92.85;100916.09;6035932;23;20002;-86
2022/09/16 01:21:42;;;;;;;5.82;2.85;;;;;;;10.92;92.85;100909.31;6060477;23;20096;-85
2022/09/16 01:24:43;;;;;;;7.82;2.72;;;;;;;10.84;93.18;100909.69;6034278;23;20125;-86
2022/09/16 01:27:25;;;;;;;7.47;2.75;;;;;;;10.80;93.79;100907.28;6061844;23;20425;-86
2022/09/16 01:30:15;;;;;;;7.50;3.38;;;;;;;10.72;94.02;100908.50;6061689;23;20425;-85
2022/09/16 01:33:03;;;;;;;7.18;3.17;;;;;;;10.68;94.79;100912.25;6062499;23;20017;-86
2022/09/16 01:35:43;;;;;;;5.82;2.83;;;;;;;10.63;95.05;100903.66;6063051;23;20006;-86
2022/09/16 01:38:39;;;;;;;6.40;3.22;;;;;;;10.60;95.01;100906.47;6061710;23;20541;-85
2022/09/16 01:41:42;;;;;;;5.72;3.15;;;;;;;10.60;95.41;100908.25;6060726;23;20032;-85
2022/09/16 01:44:20;;;;;;;8.23;3.13;;;;;;;10.60;95.90;100906.47;6039461;23;20574;-84
2022/09/16 01:46:58;;;;;;;7.60;3.40;;;;;;;10.59;95.83;100901.22;6080493;23;19994;-85
2022/09/16 01:49:54;;;;;;;6.00;3.00;;;;;;;10.57;95.99;100903.94;6089921;23;20022;-86
2022/09/16 01:52:48;;;;;;;9.45;3.17;;;;;;;10.53;96.49;100901.50;6088123;23;20007;-86
2022/09/16 01:55:49;;;;;;;7.72;3.50;;;;;;;10.53;96.06;100904.19;6069219;23;19999;-86
2022/09/16 01:58:20;;;;;;;7.70;3.35;;;;;;;10.51;96.79;100911.38;5944265;24;20070;-87
2022/09/16 02:00:48;;;;;;;9.32;3.60;;;;;;;10.47;96.89;100906.22;5945702;24;20004;-85
2022/09/16 02:03:20;;;;;;;5.53;3.47;;;;;;;10.40;96.74;100910.09;5946721;24;19997;-85
2022/09/16 02:05:51;;;;;;;6.75;3.03;;;;;;;10.37;96.92;100902.28;5946667;24;20011;-86
2022/09/16 02:08:31;;;;;;;10.57;3.72;;;;;;;10.33;96.72;100914.03;5947006;24;20059;-86
2022/09/16 02:10:59;;;;;;;7.50;3.20;;;;;;;10.29;97.16;100906.25;5946507;24;20448;-87
2022/09/16 02:14:04;;;;;;;7.43;3.35;;;;;;;10.25;96.96;100921.50;5946997;24;20044;-87
2022/09/16 02:16:36;;;;;;;7.53;2.83;;;;;;;10.18;97.33;100910.25;5907839;24;20475;-86
2022/09/16 02:19:09;;;;;;;5.40;2.80;;;;;;;10.16;97.51;100908.63;5926116;24;20074;-85
2022/09/16 02:21:38;;;;;;;9.27;3.65;;;;;;;10.10;97.47;100906.25;5926078;24;20009;-86
2022/09/16 02:24:09;;;;;;;10.02;3.33;;;;;;;10.11;97.81;100918.59;5925595;24;20009;-86
2022/09/16 02:26:43;;;;;;;8.57;3.08;;;;;;;10.13;97.27;100917.59;5932606;24;20017;-86
2022/09/16 02:29:13;;;;;;;;;;;;;;;10.16;96.07;100921.91;5943507;24;20064;-86
2022/09/16 02:31:41;;;;;;;5.00;2.75;;;;;;;10.21;96.86;100919.91;5931504;24;19908;-86
2022/09/16 02:34:13;;;;;;;5.43;2.60;;;;;;;10.29;95.67;100906.25;5972450;23;20425;-85
2022/09/16 02:36:41;;;;;;;8.00;2.30;;;;;;;10.41;95.11;100908.31;6065073;23;20006;-86
2022/09/16 02:39:10;;;;;;;8.50;2.38;;;;;;;10.54;94.69;100908.59;6066515;23;20431;-86
2022/09/16 02:41:38;;;;;;;6.63;2.20;;;;;;;10.59;93.91;100910.06;6065269;23;20022;-85
2022/09/16 02:44:04;;;;;;;4.80;2.20;;;;;;;10.67;93.01;100909.69;6064673;23;20060;-86
2022/09/16 02:46:38;;;;;;;6.50;2.53;;;;;;;10.70;93.20;100910.41;6038810;23;20022;-87
2022/09/16 02:49:13;;;;;;;8.30;2.55;;;;;;;10.80;92.57;100900.13;6067534;23;20018;-86
2022/09/16 02:52:03;;;;;;;5.70;2.03;;;;;;;10.85;92.42;100906.09;6063280;23;20078;-87
2022/09/16 02:54:46;;;;;;;7.60;2.38;;;;;;;10.87;92.16;100903.38;6037166;23;20280;-86
2022/09/16 02:57:13;;;;;;;6.45;1.95;;;;;;;10.84;90.78;100895.53;6064596;23;20017;-87
2022/09/16 02:59:38;;;;;;;8.77;2.50;;;;;;;10.89;90.48;100886.34;6062984;23;20133;-86
2022/09/16 03:02:04;;;;;;;9.20;1.80;;;;;;;10.90;90.46;100885.41;6063939;23;20015;-87
2022/09/16 03:04:29;;;;;;;4.97;2.03;;;;;;;11.02;89.57;100904.38;6062742;23;20020;-86
2022/09/16 03:06:55;;;;;;;4.82;2.10;;;;;;;11.03;89.75;100898.09;6063637;23;20361;-87
2022/09/16 03:09:22;;;;;;;5.10;2.42;;;;;;;10.98;89.75;100895.66;6062797;23;20630;-86
2022/09/16 03:12:03;;;;;;;6.38;1.88;;;;;;;10.94;89.47;100905.59;6061713;23;20013;-86
2022/09/16 03:15:02;;;;;;;5.07;2.05;;;;;;;10.90;89.91;100903.19;6062415;23;20014;-86
2022/09/16 03:17:36;;;;;;;5.85;1.92;;;;;;;10.83;90.22;100893.81;6062616;23;20449;-87
2022/09/16 03:20:15;;;;;;;4.28;1.80;;;;;;;10.76;90.30;100897.72;6061631;23;20019;-86
2022/09/16 03:23:03;;;;;;;9.02;2.20;;;;;;;10.72;90.58;100894.34;6061037;23;20389;-86
2022/09/16 03:25:36;;;;;;;5.88;2.47;;;;;;;10.62;90.75;100888.63;6062884;23;20382;-86
2022/09/16 03:28:10;;;;;;;5.55;2.22;;;;;;;10.63;91.13;100897.47;6062722;23;19999;-86
2022/09/16 03:30:45;;;;;;;6.03;1.90;;;;;;;10.61;91.51;100892.22;6061725;23;20030;-86
2022/09/16 03:33:34;;;;;;;5.22;1.80;;;;;;;10.63;91.23;100892.16;6063611;23;20011;-86
2022/09/16 03:36:04;;;;;;;4.90;1.80;;;;;;;10.67;91.56;100885.72;6076458;23;20006;-86
2022/09/16 03:38:32;;;;;;;12.73;2.75;;;;;;;10.70;91.81;100881.13;6070492;23;20053;-86
2022/09/16 03:40:58;;;;;;;4.50;1.90;;;;;;;10.77;90.80;100886.97;6069794;23;20014;-85
2022/09/16 03:43:23;;;;;;;6.05;2.00;;;;;;;10.76;90.57;100879.06;6072954;23;20060;-86
2022/09/16 03:45:50;;;;;;;7.53;2.13;;;;;;;10.71;91.18;100887.31;6062130;23;20007;-86
2022/09/16 03:48:15;;;;;;;4.60;1.95;;;;;;;10.68;91.24;100884.78;6034402;23;20006;-86
2022/09/16 03:50:40;;;;;;;4.20;2.55;;;;;;;10.64;91.28;100891.19;6035299;23;20475;-87
2022/09/16 03:53:06;;;;;;;9.55;3.03;;;;;;;10.56;92.23;100893.38;6037200;23;20014;-87
2022/09/16 03:55:31;;;;;;;10.57;2.85;;;;;;;10.45;92.43;100889.47;6062692;23;20030;-86
2022/09/16 03:57:56;;;;;;;9.68;2.55;;;;;;;10.43;92.78;100888.66;6061613;23;20487;-86
2022/09/16 04:00:22;;;;;;;7.50;2.40;;;;;;;10.40;92.83;100888.81;6062128;23;20022;-86
2022/09/16 04:02:47;;;;;;;7.28;2.30;;;;;;;10.37;93.27;100896.97;6061726;23;20011;-86
2022/09/16 04:05:12;;;;;;;6.40;2.60;;;;;;;10.32;93.42;100896.31;6062742;23;20003;-86
2022/09/16 04:07:38;;;;;;;5.70;2.22;;;;;;;10.36;93.93;100897.88;6061239;23;20037;-85
2022/09/16 04:10:05;;;;;;;7.28;2.70;;;;;;;10.36;93.83;100897.03;6061506;23;20437;-85
2022/09/16 04:12:31;;;;;;;6.82;2.53;;;;;;;10.41;93.89;100900.34;6061132;23;20041;-86
2022/09/16 04:14:56;;;;;;;6.32;2.40;;;;;;;10.43;94.16;100891.34;6061664;23;20006;-86
2022/09/16 04:17:22;;;;;;;8.48;2.70;;;;;;;10.47;93.96;100890.25;6061950;23;20776;-86
2022/09/16 04:19:47;;;;;;;5.55;2.30;;;;;;;10.51;94.08;100900.75;6061695;23;20093;-86
2022/09/16 04:22:13;;;;;;;5.32;2.78;;;;;;;10.52;94.08;100900.66;6061908;23;20038;-86
2022/09/16 04:24:38;;;;;;;6.45;2.67;;;;;;;10.48;94.22;100893.75;6061277;23;20138;-86
2022/09/16 04:27:03;;;;;;;6.55;2.58;;;;;;;10.42;94.02;100902.06;6038579;23;20036;-86
2022/09/16 04:29:29;;;;;;;7.50;2.47;;;;;;;10.36;94.89;100897.03;6063277;23;20007;-86
2022/09/16 04:31:54;;;;;;;6.43;2.70;;;;;;;10.28;94.74;100884.09;6060631;23;20007;-86
2022/09/16 04:34:19;;;;;;;11.95;3.13;;;;;;;10.34;95.50;100899.78;6036699;23;20003;-86
2022/09/16 04:36:45;;;;;;;4.78;2.50;;;;;;;10.31;95.56;100893.72;6036878;23;20007;-86
2022/09/16 04:39:11;;;;;;;7.60;2.40;;;;;;;10.27;95.67;100898.34;6061944;23;20019;-86
2022/09/16 04:41:37;;;;;;;8.07;2.40;;;;;;;10.26;96.16;100899.28;6037131;23;20032;-86
2022/09/16 04:44:03;;;;;;;6.32;2.88;;;;;;;10.26;96.41;100903.75;6038157;23;20333;-87
2022/09/16 04:46:31;;;;;;;5.93;2.88;;;;;;;10.29;96.37;100895.63;6062235;23;20011;-87
2022/09/16 04:48:58;;;;;;;7.75;2.40;;;;;;;10.34;96.72;100904.25;6046898;23;20496;-87
2022/09/16 04:51:26;;;;;;;5.10;2.38;;;;;;;10.35;96.87;100906.81;6053182;23;20006;-86
2022/09/16 04:53:53;;;;;;;7.70;2.30;;;;;;;10.39;96.97;100907.53;6075544;23;20011;-86
2022/09/16 04:56:22;;;;;;;4.30;2.50;;;;;;;10.38;96.89;100901.34;6080752;23;20060;-86
2022/09/16 04:58:50;;;;;;;8.27;2.53;;;;;;;10.44;97.43;100909.00;6087761;23;20027;-86
2022/09/16 05:01:26;;;;;;;7.45;2.50;;;;;;;10.37;98.34;100894.31;6086597;23;20007;-86
2022/09/16 05:03:54;;;;;;;4.55;2.00;;;;;;;10.35;98.34;100906.81;6059792;23;20067;-86
2022/09/16 05:06:22;;;;;;;5.50;2.05;;;;;;;10.39;98.41;100896.88;6071924;23;20066;-87
2022/09/16 05:08:49;;;;;;;8.98;2.20;;;;;;;10.36;98.09;100879.25;6063926;23;19998;-87
2022/09/16 05:11:17;;;;;;;3.85;1.90;;;;;;;10.41;97.53;100887.91;6064422;23;20018;-86
2022/09/16 05:13:42;;;;;;;4.28;1.73;;;;;;;10.39;97.29;100876.47;6066916;23;20007;-84
2022/09/16 05:16:13;;;;;;;2.83;1.63;;;;;;;10.41;97.01;100895.88;6066395;23;20053;-86
2022/09/16 05:18:40;;;;;;;7.63;1.75;;;;;;;10.41;96.75;100895.88;6063510;23;20126;-86
2022/09/16 05:21:11;;;;;;;5.07;1.80;;;;;;;10.39;96.96;100903.06;6064665;23;20003;-86
2022/09/16 05:23:37;;;;;;;4.05;1.77;;;;;;;10.34;97.04;100891.78;6064287;23;20007;-87
2022/09/16 05:26:05;;;;;;;5.88;2.05;;;;;;;10.34;97.20;100899.78;6064556;23;20066;-86
2022/09/16 05:28:30;;;;;;;4.93;1.80;;;;;;;10.30;97.41;100900.84;6061176;23;20003;-86
2022/09/16 05:31:08;;;;;;;5.53;2.38;;;;;;;10.29;97.53;100909.78;6063050;23;20069;-88
2022/09/16 05:33:34;;;;;;;5.40;2.20;;;;;;;10.27;97.59;100908.13;6063147;23;20445;-87
2022/09/16 05:36:07;;;;;;;5.90;2.40;;;;;;;10.19;97.94;100917.28;6064278;23;20010;-87
2022/09/16 05:38:32;;;;;;;6.70;2.00;;;;;;;10.19;97.96;100919.09;6062525;23;20346;-86
2022/09/16 05:40:59;;;;;;;5.93;2.58;;;;;;;10.23;98.16;100931.31;6062808;23;20009;-84
2022/09/16 05:43:24;;;;;;;6.50;2.20;;;;;;;10.25;98.15;100929.50;6062844;23;20303;-86
2022/09/16 05:45:51;;;;;;;6.32;2.20;;;;;;;10.24;98.48;100919.72;6064997;23;20007;-86
2022/09/16 05:48:16;;;;;;;6.60;2.17;;;;;;;10.36;98.43;100913.00;6062504;23;20003;-86
2022/09/16 05:50:52;;;;;;;7.68;2.83;;;;;;;10.51;98.67;100916.72;6062728;23;20329;-87
2022/09/16 05:53:18;;;;;;;6.20;4.03;;;;;;;10.56;97.89;100915.53;6061885;23;20058;-87
2022/09/16 05:56:00;;;;;;;7.65;2.65;;;;;;;10.71;97.17;100916.59;6062718;23;20007;-87
2022/09/16 05:58:27;;;;;;;5.43;2.50;;;;;;;10.80;96.89;100917.91;6035611;23;20335;-86
2022/09/16 06:01:00;;;;;;;11.40;3.97;;;;;;;10.88;96.90;100913.94;6063488;23;20009;-87
2022/09/16 06:03:26;;;;;;;8.93;2.30;;;;;;;10.92;96.37;100907.50;6037044;23;20436;-87
2022/09/16 06:05:58;;;;;;;8.15;3.63;;;;;;;11.02;95.97;100910.53;6063079;23;20415;-87
2022/09/16 06:08:23;;;;;;;6.45;2.50;;;;;;;11.09;96.01;100906.63;6061912;23;20003;-88
2022/09/16 06:10:49;;;;;;;6.38;1.83;;;;;;;11.17;94.79;100911.56;6061736;23;20006;-87
2022/09/16 06:13:14;;;;;;;3.20;1.88;;;;;;;11.25;95.17;100912.03;6063421;23;20085;-89
2022/09/16 06:15:47;;;;;;;5.32;1.67;;;;;;;11.29;94.29;100905.59;6062567;23;20013;-88
2022/09/16 06:18:15;;;;;;;4.53;1.88;;;;;;;11.35;93.89;100912.41;6037052;23;20109;-88
2022/09/16 06:20:40;;;;;;;4.53;2.00;;;;;;;11.34;93.44;100911.53;6036785;23;20402;-87
2022/09/16 06:23:05;;;;;;;4.90;1.77;;;;;;;11.46;93.10;100918.88;6037533;23;20042;-87
2022/09/16 06:25:30;;;;;;;5.72;1.70;;;;;;;11.67;92.90;100916.00;6061163;23;20014;-88
2022/09/16 06:27:56;;;;;;;2.80;1.33;;;;;;;11.77;91.79;100927.03;6062255;23;20031;-88
2022/09/16 06:30:21;;;;;;;3.50;1.33;;;;;;;11.71;90.35;100923.75;6063426;23;20429;-88
2022/09/16 06:32:46;;;;;;;5.30;1.30;;;;;;;11.65;91.05;100923.22;6062142;23;20049;-87
2022/09/16 06:35:11;;;;;;;4.53;1.60;;;;;;;11.66;90.67;100935.59;6062365;23;20039;-88
2022/09/16 06:37:37;;;;;;;4.78;1.25;;;;;;;11.60;90.40;100927.94;6063138;23;20022;-89
2022/09/16 06:40:02;;;;;;;13.95;6.35;;;;;;;11.60;90.41;100946.59;6062248;23;20145;-88
2022/09/16 06:42:27;;;;;;;8.20;3.95;;;;;;;11.53;90.82;100940.72;6061882;23;20029;-86
2022/09/16 06:44:53;;;;;;;4.32;2.22;;;;;;;11.45;91.02;100941.16;6063468;23;20064;-85
2022/09/16 06:47:18;;;;;;;2.70;1.45;;;;;;;11.44;91.30;100925.22;6063147;23;20003;-86
2022/09/16 06:49:45;;;;;;;4.47;1.50;;;;;;;11.52;92.04;100935.47;6061104;23;20702;-86
2022/09/16 06:52:10;;;;;;;5.32;1.30;;;;;;;11.63;90.82;100935.78;6061695;23;20011;-88
2022/09/16 06:54:35;;;;;;;4.18;1.75;;;;;;;11.75;89.88;100940.47;6037241;23;20007;-86
2022/09/16 06:57:01;;;;;;;5.00;1.75;;;;;;;11.80;89.48;100933.06;6063269;23;20011;-86
2022/09/16 06:59:26;;;;;;;5.40;2.50;;;;;;;11.89;89.96;100939.72;6061000;23;20006;-87
2022/09/16 07:01:51;;;;;;;5.38;1.90;;;;;;;11.94;89.09;100938.50;6061551;23;20011;-87
2022/09/16 07:04:17;;;;;;;4.20;2.10;;;;;;;11.96;89.14;100939.31;6064637;23;20026;-87
2022/09/16 07:06:42;;;;;;;5.68;1.83;;;;;;;11.99;88.90;100948.06;6062374;23;20014;-87
2022/09/16 07:09:09;;;;;;;3.58;1.40;;;;;;;12.00;89.15;100952.44;6036406;23;20227;-88
2022/09/16 07:11:34;;;;;;;4.47;1.42;;;;;;;11.96;88.91;100943.78;6059799;23;20026;-86
2022/09/16 07:13:59;;;;;;;4.55;1.35;;;;;;;11.90;89.19;100947.63;6064125;23;20026;-86
2022/09/16 07:16:25;;;;;;;2.70;1.20;;;;;;;11.81;89.33;100947.25;6066655;23;20006;-86
2022/09/16 07:18:57;;;;;;;2.97;1.38;;;;;;;11.97;90.07;100950.84;6070952;23;19999;-86
2022/09/16 07:21:28;;;;;;;3.70;1.60;;;;;;;12.38;88.82;100951.19;6080669;23;20034;-86
2022/09/16 07:23:56;;;;;;;4.10;1.30;;;;;;;12.98;86.12;100949.53;6071481;23;20073;-86
2022/09/16 07:26:27;;;;;;;6.43;1.88;;;;;;;13.52;83.44;100947.22;6071986;23;20022;-86
2022/09/16 07:28:53;;;;;;;2.28;1.30;;;;;;;13.99;80.61;100952.25;6079554;23;20013;-85
2022/09/16 07:31:24;;;;;;;4.68;1.83;;;;;;;14.35;79.26;100950.88;6079825;23;20007;-86
2022/09/16 07:33:51;;;;;;;2.80;1.40;;;;;;;14.86;76.91;100943.06;6072117;23;20007;-86
2022/09/16 07:36:20;;;;;;;3.75;1.15;;;;;;;15.56;73.87;100948.09;6063077;23;20086;-86
2022/09/16 07:38:46;;;;;;;2.50;1.17;;;;;;;16.11;70.43;100960.28;6038671;23;20014;-86
2022/09/16 07:41:14;;;;;;;2.95;0.90;;;;;;;16.69;68.35;100943.44;6062747;23;20393;-86
2022/09/16 07:43:41;;;;;;;1.90;0.80;;;;;;;17.30;66.39;100953.22;6067576;23;20266;-86
2022/09/16 07:46:09;;;;;;;3.05;1.00;;;;;;;17.54;64.30;100959.38;6071009;23;20333;-86
2022/09/16 07:48:35;;;;;;;4.95;0.80;;;;;;;17.51;63.80;100964.13;6048548;23;20003;-86
2022/09/16 07:51:04;;;;;;;8.13;1.02;;;;;;;17.07;64.46;100965.75;6073747;23;20033;-86
2022/09/16 07:53:30;;;;;;;2.95;1.10;;;;;;;16.30;65.81;100984.88;6057732;23;20011;-85
2022/09/16 07:55:59;;;;;;;2.58;1.20;;;;;;;15.43;67.98;100973.09;6058197;23;20002;-86
2022/09/16 07:58:25;;;;;;;2.95;0.93;;;;;;;14.89;71.50;100959.78;6085550;23;20003;-86
2022/09/16 08:00:50;;;;;;;3.03;0.95;;;;;;;15.12;73.70;100970.78;6078763;23;20142;-86
2022/09/16 08:03:16;;;;;;;3.42;1.10;;;;;;;15.63;70.34;100974.38;6061304;23;20003;-86
2022/09/16 08:05:42;;;;;;;4.40;1.00;;;;;;;15.60;71.18;100966.53;6061772;23;20007;-86
2022/09/16 08:08:07;;;;;;;3.35;0.98;;;;;;;15.26;74.03;100975.19;6062369;23;20404;-86
2022/09/16 08:10:33;;;;;;;3.17;0.95;;;;;;;14.78;75.80;100981.06;6064554;23;20429;-86
2022/09/16 08:12:58;;;;;;;4.25;1.10;;;;;;;14.53;77.10;100972.94;6060721;23;20038;-85
2022/09/16 08:15:23;;;;;;;3.85;1.13;;;;;;;14.57;77.80;100980.66;6061269;23;20002;-87
2022/09/16 08:17:48;;;;;;;3.05;1.23;;;;;;;14.37;77.42;100991.78;6061577;23;20017;-86
2022/09/16 08:20:14;;;;;;;5.45;1.42;;;;;;;14.56;80.68;100992.34;6036453;23;19999;-86
2022/09/16 08:22:40;;;;;;;4.28;1.50;;;;;;;15.79;76.24;100997.47;6059300;23;20066;-86
2022/09/16 08:25:05;;;;;;;3.17;1.30;;;;;;;16.91;71.86;100977.66;6062146;23;20026;-86
2022/09/16 08:27:34;;;;;;;4.63;1.42;;;;;;;17.90;66.93;100990.66;6061617;23;20462;-86
2022/09/16 08:29:59;;;;;;;3.83;1.40;;;;;;;18.33;65.14;100970.19;6060781;23;20030;-86
2022/09/16 08:32:24;;;;;;;5.78;2.75;;;;;;;19.25;62.27;100976.88;6060100;23;20485;-86
2022/09/16 08:34:50;;;;;;;3.63;1.50;;;;;;;19.98;59.26;100987.72;6061940;23;20072;-86
2022/09/16 08:37:15;;;;;;;3.72;1.30;;;;;;;20.69;56.21;100980.44;6060631;23;20034;-86
2022/09/16 08:39:41;;;;;;;4.68;1.30;;;;;;;21.11;54.33;100977.50;6060740;23;20014;-86
2022/09/16 08:42:20;;;;;;;5.80;1.67;;;;;;;21.52;55.66;100983.59;6035946;23;20302;-86
2022/09/16 08:44:49;;;;;;;3.95;1.20;;;;;;;21.37;53.29;100980.50;6062449;23;20033;-86
2022/09/16 08:47:41;;;;;;;3.95;1.23;;;;;;;20.81;55.21;100990.13;6060579;23;20005;-86
2022/09/16 08:50:14;;;;;;;3.22;1.10;;;;;;;20.80;55.10;100988.41;6060451;23;20051;-86
2022/09/16 08:52:43;;;;;;;6.25;1.33;;;;;;;21.48;52.57;100976.75;6059786;23;20011;-86
2022/09/16 08:55:17;;;;;;;3.65;1.27;;;;;;;22.29;51.66;100980.66;6062900;23;20082;-86
2022/09/16 08:57:53;;;;;;;4.60;1.30;;;;;;;23.31;48.15;100988.50;6061349;23;20086;-87
2022/09/16 09:00:19;;;;;;;3.35;1.25;;;;;;;24.04;46.53;100996.34;6062174;23;20429;-84
2022/09/16 09:02:54;;;;;;;3.92;1.30;;;;;;;23.84;45.79;100986.72;6035922;23;20007;-85
2022/09/16 09:05:52;;;;;;;5.43;1.13;;;;;;;24.26;47.23;100996.78;6062268;23;20007;-84
2022/09/16 09:08:34;;;;;;;3.58;1.08;;;;;;;24.47;44.38;100991.78;6063418;23;20337;-85
2022/09/16 09:11:20;;;;;;;3.30;0.85;;;;;;;25.40;43.28;100993.50;6040091;23;20014;-85
2022/09/16 09:14:09;;;;;;;2.63;0.82;;;;;;;25.79;43.79;100980.00;6065030;23;20003;-85
2022/09/16 09:16:53;;;;;;;3.90;0.90;;;;;;;26.35;37.89;100978.13;6062861;23;20418;-86
2022/09/16 09:19:30;;;;;;;;;;;;;;;25.91;42.70;100983.22;6062996;23;20062;-85
2022/09/16 09:22:12;;;;;;;2.97;0.73;;;;;;;24.10;42.70;100987.50;6039323;23;19909;-85
2022/09/16 09:25:05;;;;;;;2.72;0.80;;;;;;;24.49;42.70;100997.06;6040557;23;20015;-85
2022/09/16 09:27:44;;;;;;;4.03;0.93;;;;;;;24.00;42.08;100985.94;6061479;23;20023;-85
2022/09/16 09:30:25;;;;;;;2.53;1.10;;;;;;;23.56;43.25;100984.09;6060162;23;20243;-85
2022/09/16 09:32:59;;;;;;;5.10;1.58;;;;;;;23.36;42.68;100979.88;6060124;23;20034;-85
2022/09/16 09:35:33;;;;;;;2.13;1.00;;;;;;;21.80;43.80;100979.94;6036036;23;20007;-84
2022/09/16 09:38:28;;;;;;;2.40;0.95;;;;;;;20.25;48.15;100982.56;6035427;23;20011;-84
2022/09/16 09:40:59;;;;;;;1.80;0.70;;;;;;;18.83;51.69;100984.91;6060462;23;20007;-84
2022/09/16 09:43:32;;;;;;;4.65;1.40;;;;;;;18.65;51.97;100976.50;6061889;23;20413;-84
2022/09/16 09:46:05;;;;;;;3.85;1.10;;;;;;;18.75;52.61;100979.31;6053042;23;20001;-85
2022/09/16 09:48:39;;;;;;;3.08;0.80;;;;;;;18.20;52.60;100981.09;6061686;23;20006;-85
2022/09/16 09:51:14;;;;;;;2.20;1.27;;;;;;;19.31;51.98;100972.81;6089971;23;20029;-85
2022/09/16 09:53:45;;;;;;;4.00;1.10;;;;;;;21.08;45.58;100973.22;6086411;23;20007;-85
2022/09/16 09:56:21;;;;;;;3.03;0.90;;;;;;;20.79;47.31;100970.50;6061684;23;20019;-86
2022/09/16 09:58:52;;;;;;;4.93;1.00;;;;;;;21.97;44.18;100975.63;6086596;23;20003;-85
2022/09/16 10:01:18;;;;;;;3.28;1.13;;;;;;;23.34;42.47;100966.47;6069145;23;20003;-86
2022/09/16 10:03:44;;;;;;;2.28;0.80;;;;;;;23.31;40.87;100969.47;6065369;23;20086;-86
2022/09/16 10:06:10;;;;;;;2.28;0.70;;;;;;;22.02;42.45;100972.44;6083708;23;20003;-86
2022/09/16 10:08:47;;;;;;;4.07;1.00;;;;;;;20.76;46.78;100989.69;6084320;23;20041;-86
2022/09/16 10:11:24;;;;;;;3.85;0.80;;;;;;;20.23;48.65;101008.03;6063590;23;20433;-86
2022/09/16 10:13:52;;;;;;;1.95;0.70;;;;;;;18.99;44.32;101007.94;6063652;23;20432;-85
2022/09/16 10:16:20;;;;;;;2.65;0.70;;;;;;;17.40;47.42;101016.13;6063552;23;20068;-85
2022/09/16 10:18:56;;;;;;;2.40;0.60;;;;;;;16.46;51.64;101032.94;6062153;23;20027;-85
2022/09/16 10:21:22;;;;;;;6.43;1.70;;;;;;;15.37;66.50;101056.63;6035065;23;20017;-83
2022/09/16 10:23:56;;;;;;;19.48;2.08;;;;;;;14.00;72.58;101042.28;6062053;23;20086;-83
2022/09/16 10:26:27;;;;;;;7.20;1.20;;;;;;;12.88;78.01;101054.28;6062520;23;20007;-86
2022/09/16 10:29:12;;;;;;;3.78;0.80;;;;;;;12.07;81.63;101041.88;6062436;23;20003;-85
2022/09/16 10:31:39;;;;;;;2.22;0.60;;;;;;;11.50;82.47;101031.53;6062250;23;20016;-85
2022/09/16 10:34:18;;;;;;;3.47;0.57;;;;;;;11.07;84.09;101027.50;6061181;23;20506;-85
2022/09/16 10:36:44;;;;;;;4.22;1.13;;;;;;;11.03;87.57;101021.47;6036323;23;20007;-87
2022/09/16 10:39:23;;;;;;;1.60;0.60;;;;;;;11.07;87.70;101016.84;6061538;23;20078;-90
2022/09/16 10:41:49;;;;;;;1.58;0.60;;;;;;;11.13;89.11;101019.22;6062632;23;20003;-93
2022/09/16 10:44:29;;;;;;;1.02;0.60;;;;;;;11.22;89.00;101018.75;6066159;23;20014;-88
2022/09/16 10:47:01;;;;;;;1.85;0.70;;;;;;;11.14;88.42;101002.28;6065389;23;20109;-89
2022/09/16 10:49:42;;;;;;;2.17;0.73;;;;;;;11.23;89.61;101012.47;6069125;23;20046;-87
2022/09/16 10:52:16;;;;;;;1.33;0.80;;;;;;;11.17;90.64;101015.47;6070157;23;20617;-89
2022/09/16 10:54:42;;;;;;;0.70;0.60;;;;;;;11.17;91.88;101012.81;6043737;23;20018;-92
2022/09/16 10:57:30;;;;;;;1.00;0.50;;;;;;;11.21;91.22;101011.72;6075080;23;20030;-92
2022/09/16 11:00:16;;;;;;;3.80;1.70;;;;;;;11.40;90.92;101008.94;6082977;23;19994;-91
2022/09/16 11:02:54;;;;;;;2.67;0.80;;;;;;;11.82;92.06;101021.81;6086360;23;20039;-87
2022/09/16 11:05:44;;;;;;;2.13;0.70;;;;;;;12.53;89.77;101023.34;6086215;23;20089;-87
2022/09/16 11:08:20;;;;;;;4.30;1.30;;;;;;;13.06;87.22;101011.41;6068569;23;20070;-86
2022/09/16 11:11:18;;;;;;;3.25;1.20;;;;;;;12.96;86.56;101016.44;6037468;23;20139;-87
2022/09/16 11:13:56;;;;;;;2.85;1.15;;;;;;;12.80;87.11;101021.78;6062952;23;20003;-86
2022/09/16 11:17:01;;;;;;;2.38;0.90;;;;;;;12.67;88.30;101016.28;6064499;23;20485;-86
2022/09/16 11:19:50;;;;;;;3.47;1.45;;;;;;;12.68;88.19;101026.03;6035041;23;20010;-87
2022/09/16 11:22:27;;;;;;;2.65;1.30;;;;;;;12.81;90.86;101028.00;6060955;23;20003;-86
2022/09/16 11:25:05;;;;;;;3.97;1.25;;;;;;;12.93;90.18;101021.94;6061222;23;20006;-85
2022/09/16 11:27:48;;;;;;;2.88;1.80;;;;;;;13.03;90.39;101019.59;6063244;23;20014;-85
2022/09/16 11:30:18;;;;;;;3.90;1.60;;;;;;;13.09;89.87;101012.09;6062475;23;20013;-85
2022/09/16 11:33:04;;;;;;;3.90;1.50;;;;;;;13.20;91.14;101020.31;6062641;23;20054;-85
2022/09/16 11:35:41;;;;;;;3.42;1.40;;;;;;;13.36;90.46;101022.13;6062093;23;20440;-86
2022/09/16 11:38:37;;;;;;;4.18;1.30;;;;;;;13.57;88.42;101011.97;6062201;23;20015;-84
2022/09/16 11:41:15;;;;;;;3.50;2.28;;;;;;;14.15;86.81;101024.41;6036140;23;20098;-85
2022/09/16 11:43:58;;;;;;;6.57;1.98;;;;;;;15.62;84.14;101017.41;6061380;23;20035;-85
2022/09/16 11:46:39;;;;;;;6.07;1.50;;;;;;;17.74;73.94;101005.41;6061608;23;20015;-82